Time;durP1;ratioP1;P1;durP2;ratioP2;P2;SDS_P1;SDS_P2;PMS_P1;PMS_P2;Temp;Humidity;BMP_temperature;BMP_pressure;BME280_temperature;BME280_humidity;BME280_pressure;Samples;Min_cycle;Max_cycle;Signal;HPM_P1;HPM_P2
2022/02/26 00:02:04;;;;;;;37.60;4.03;;;;;;;8.68;57.29;102023.06;5009462;28;96783;-76
2022/02/26 00:04:32;;;;;;;35.53;4.40;;;;;;;8.23;58.42;102032.09;5006468;28;99148;-76
2022/02/26 00:06:58;;;;;;;29.55;3.92;;;;;;;8.21;58.49;102041.75;5013162;28;99398;-77
2022/02/26 00:09:26;;;;;;;32.03;3.60;;;;;;;8.79;57.46;102042.31;5019528;28;99280;-77
2022/02/26 00:11:52;;;;;;;35.90;4.45;;;;;;;8.14;58.75;102038.28;5009894;28;100158;-77
2022/02/26 00:14:18;;;;;;;28.95;4.60;;;;;;;8.12;59.19;102050.59;5008607;28;98451;-77
2022/02/26 00:16:44;;;;;;;26.48;3.80;;;;;;;8.57;57.47;102052.13;5011573;28;99208;-76
2022/02/26 00:19:11;;;;;;;38.30;4.38;;;;;;;8.27;57.88;102045.22;5012652;28;99240;-76
2022/02/26 00:21:39;;;;;;;32.13;4.28;;;;;;;7.84;59.26;102055.09;5011448;28;96761;-76
2022/02/26 00:24:06;;;;;;;26.42;3.75;;;;;;;8.44;57.57;102053.09;5012253;28;96956;-77
2022/02/26 00:26:32;;;;;;;28.83;4.10;;;;;;;8.65;56.81;102063.50;5005267;28;99240;-76
2022/02/26 00:28:58;;;;;;;42.17;4.40;;;;;;;8.72;56.16;102061.69;5007877;28;98969;-76
2022/02/26 00:31:25;;;;;;;32.88;4.32;;;;;;;8.79;55.90;102063.41;5005969;28;98712;-76
2022/02/26 00:33:51;;;;;;;33.70;3.90;;;;;;;8.73;56.42;102066.94;5013832;28;96923;-76
2022/02/26 00:36:17;;;;;;;31.50;4.22;;;;;;;8.54;56.54;102064.44;5008790;28;99437;-76
2022/02/26 00:38:45;;;;;;;33.85;3.92;;;;;;;8.50;56.07;102075.88;5007477;28;99020;-76
2022/02/26 00:41:11;;;;;;;31.65;3.75;;;;;;;9.11;55.30;102069.28;5013161;28;96881;-77
2022/02/26 00:43:38;;;;;;;36.47;5.03;;;;;;;8.20;57.82;102075.16;5009356;28;98861;-76
2022/02/26 00:46:07;;;;;;;30.35;4.07;;;;;;;8.87;56.09;102077.38;5018272;28;99278;-75
2022/02/26 00:51:17;;;;;;;30.98;3.47;;;;;;;9.41;54.51;102091.00;5008392;28;97254;-76
2022/02/26 00:53:45;;;;;;;36.42;4.15;;;;;;;9.41;54.34;102101.53;5013895;28;96773;-76
2022/02/26 00:56:11;;;;;;;35.83;5.03;;;;;;;9.30;54.85;102095.50;5008369;28;99195;-76
2022/02/26 00:58:38;;;;;;;30.73;4.07;;;;;;;8.92;56.06;102109.88;5008770;28;97782;-76
2022/02/26 01:01:04;;;;;;;28.13;3.67;;;;;;;8.69;56.47;102103.88;5007662;28;97721;-75
2022/02/26 01:03:31;;;;;;;45.85;5.90;;;;;;;8.85;55.81;102110.81;5006290;28;96899;-77
2022/02/26 01:05:57;;;;;;;22.48;4.03;;;;;;;9.30;55.08;102111.31;5007061;28;102538;-76
2022/02/26 01:08:23;;;;;;;42.38;4.07;;;;;;;9.17;55.27;102116.72;5007088;28;101158;-76
2022/02/26 01:10:51;;;;;;;31.45;4.00;;;;;;;9.35;54.92;102120.06;5015881;28;96754;-76
2022/02/26 01:13:18;;;;;;;34.58;4.20;;;;;;;9.24;54.69;102120.16;5007337;28;98878;-76
2022/02/26 01:15:44;;;;;;;33.20;5.18;;;;;;;9.56;54.35;102122.53;5007017;28;99288;-77
2022/02/26 01:18:11;;;;;;;28.45;3.35;;;;;;;9.21;54.86;102125.47;5004869;28;99037;-76
2022/02/26 01:20:37;;;;;;;30.05;4.18;;;;;;;9.16;54.70;102122.88;5015620;28;98515;-76
2022/02/26 01:23:04;;;;;;;32.03;4.60;;;;;;;9.33;54.84;102135.03;5013355;28;97631;-76
2022/02/26 01:25:30;;;;;;;34.92;4.75;;;;;;;9.50;53.86;102130.50;5007086;28;99094;-77
2022/02/26 01:27:58;;;;;;;29.48;4.22;;;;;;;9.62;53.57;102127.75;5014933;28;98862;-76
2022/02/26 01:30:25;;;;;;;30.77;5.03;;;;;;;9.13;55.19;102133.41;5010255;28;98916;-76
2022/02/26 01:32:52;;;;;;;27.58;3.92;;;;;;;9.26;54.74;102138.59;5016688;28;97816;-75
2022/02/26 01:35:18;;;;;;;36.00;6.40;;;;;;;9.01;55.37;102144.06;5011156;28;99682;-76
2022/02/26 01:37:44;;;;;;;31.83;4.07;;;;;;;8.71;56.11;102144.28;5009715;28;99286;-76
2022/02/26 01:40:12;;;;;;;42.05;5.25;;;;;;;9.16;54.95;102148.34;5007011;28;96808;-74
2022/02/26 01:42:39;;;;;;;33.42;5.18;;;;;;;9.05;55.62;102140.53;5006316;28;97456;-75
2022/02/26 01:45:13;;;;;;;40.40;5.07;;;;;;;8.53;56.66;102149.66;5020423;28;98886;-75
2022/02/26 01:47:39;;;;;;;44.30;4.40;;;;;;;8.86;55.99;102146.78;5008547;28;99149;-75
2022/02/26 01:50:07;;;;;;;35.00;4.55;;;;;;;9.22;55.07;102147.44;5004740;28;96752;-75
2022/02/26 01:52:34;;;;;;;44.92;5.00;;;;;;;8.89;55.58;102151.19;5010471;28;97542;-75
2022/02/26 01:55:00;;;;;;;34.83;4.40;;;;;;;8.88;56.03;102155.56;5013746;28;98974;-75
2022/02/26 01:57:27;;;;;;;41.33;5.10;;;;;;;8.72;56.09;102159.19;5007097;28;100529;-76
2022/02/26 01:59:53;;;;;;;30.30;4.28;;;;;;;8.91;55.98;102171.38;5014374;28;98691;-75
2022/02/26 02:02:21;;;;;;;35.92;4.57;;;;;;;9.01;55.77;102170.44;5010725;28;96812;-76
2022/02/26 02:04:48;;;;;;;34.53;4.43;;;;;;;8.74;55.97;102160.94;5006003;28;99011;-75
2022/02/26 02:07:14;;;;;;;35.63;4.75;;;;;;;8.86;56.12;102162.59;5016719;28;99846;-76
2022/02/26 02:09:43;;;;;;;29.98;4.95;;;;;;;8.72;56.34;102168.00;5013846;28;98487;-76
2022/02/26 02:12:10;;;;;;;34.33;3.63;;;;;;;8.35;57.74;102177.78;5013254;28;96849;-76
2022/02/26 02:14:37;;;;;;;33.90;4.45;;;;;;;8.77;56.57;102170.59;5012950;28;99225;-74
2022/02/26 02:17:04;;;;;;;50.58;5.07;;;;;;;8.05;58.30;102177.88;4991893;22;99549;-71
2022/02/26 02:19:32;;;;;;;38.50;4.97;;;;;;;8.29;57.79;102177.78;4975275;28;97426;-71
2022/02/26 02:22:03;;;;;;;34.83;4.15;;;;;;;8.53;57.67;102183.91;4972951;28;96871;-71
2022/02/26 02:24:30;;;;;;;45.85;5.22;;;;;;;7.84;59.08;102184.03;4974273;28;98482;-71
2022/02/26 02:26:57;;;;;;;43.92;5.15;;;;;;;8.30;58.35;102190.09;4970190;28;100574;-71
2022/02/26 02:29:23;;;;;;;43.70;5.13;;;;;;;8.32;58.53;102183.09;4969297;28;97326;-71
2022/02/26 02:31:50;;;;;;;37.45;4.20;;;;;;;8.47;57.89;102189.19;4982875;28;97402;-70
2022/02/26 02:34:16;;;;;;;34.08;4.18;;;;;;;8.93;56.54;102193.31;4978725;28;97894;-72
2022/02/26 02:36:43;;;;;;;36.75;4.53;;;;;;;8.43;57.73;102182.16;4983444;28;98914;-70
2022/02/26 02:39:11;;;;;;;41.97;5.50;;;;;;;8.57;57.38;102194.41;4974669;28;96999;-71
2022/02/26 02:41:37;;;;;;;39.78;5.10;;;;;;;8.37;57.59;102197.13;4975979;28;97030;-72
2022/02/26 02:44:04;;;;;;;33.78;4.13;;;;;;;8.79;56.68;102196.03;4975964;28;99344;-72
2022/02/26 02:46:31;;;;;;;29.58;4.03;;;;;;;9.20;55.32;102206.34;4982068;28;99379;-70
2022/02/26 02:48:57;;;;;;;37.58;4.95;;;;;;;8.67;56.91;102208.38;4973136;28;99018;-71
2022/02/26 02:51:24;;;;;;;41.92;4.40;;;;;;;9.35;55.24;102223.81;4977229;28;96903;-72
2022/02/26 02:53:50;;;;;;;38.80;4.38;;;;;;;8.94;56.00;102210.00;4982458;28;98197;-71
2022/02/26 02:56:18;;;;;;;40.05;4.93;;;;;;;9.36;55.03;102224.72;4973880;28;99377;-71
2022/02/26 02:58:44;;;;;;;26.75;4.57;;;;;;;8.87;56.07;102211.81;4975222;28;96787;-73
2022/02/26 03:01:11;;;;;;;32.65;5.45;;;;;;;8.73;56.80;102216.28;4981529;28;96831;-72
2022/02/26 03:03:37;;;;;;;39.60;5.30;;;;;;;8.61;57.37;102225.09;4979025;28;99632;-72
2022/02/26 03:06:04;;;;;;;46.33;4.80;;;;;;;8.83;56.37;102218.00;4973788;28;98892;-71
2022/02/26 03:08:30;;;;;;;33.03;4.00;;;;;;;8.93;56.18;102230.22;4975021;28;96809;-72
2022/02/26 03:10:58;;;;;;;37.45;5.50;;;;;;;9.18;56.00;102236.25;4982490;28;98192;-71
2022/02/26 03:13:28;;;;;;;27.25;3.92;;;;;;;9.14;55.68;102231.88;4974760;28;99479;-71
2022/02/26 03:15:56;;;;;;;29.08;4.10;;;;;;;8.57;57.09;102240.94;4979611;28;99037;-71
2022/02/26 03:18:24;;;;;;;41.38;4.78;;;;;;;8.93;56.61;102235.50;4981604;28;96802;-71
2022/02/26 03:20:51;;;;;;;28.95;4.75;;;;;;;9.32;55.81;102246.72;4983269;28;97416;-71
2022/02/26 03:23:18;;;;;;;31.38;4.10;;;;;;;8.59;57.65;102247.97;4981524;28;98984;-71
2022/02/26 03:25:45;;;;;;;33.38;4.57;;;;;;;9.06;56.58;102244.22;4987094;28;98943;-71
2022/02/26 03:28:12;;;;;;;38.63;4.40;;;;;;;8.83;57.25;102244.34;4973319;28;96709;-71
2022/02/26 03:30:40;;;;;;;26.33;4.20;;;;;;;8.74;56.94;102247.03;4976323;28;98153;-72
2022/02/26 03:33:07;;;;;;;40.83;5.35;;;;;;;9.04;56.87;102246.00;4976800;28;99340;-72
2022/02/26 03:35:34;;;;;;;44.13;4.70;;;;;;;9.16;56.23;102253.84;4979150;28;99171;-72
2022/02/26 03:38:00;;;;;;;39.13;4.28;;;;;;;9.37;56.00;102258.13;4973634;28;96957;-71
2022/02/26 03:40:26;;;;;;;37.17;4.05;;;;;;;9.24;55.98;102257.31;4977116;28;96908;-73
2022/02/26 03:42:53;;;;;;;38.97;5.43;;;;;;;8.99;56.63;102261.84;4979954;28;100256;-72
2022/02/26 03:45:22;;;;;;;36.50;4.82;;;;;;;8.87;56.86;102267.16;4977938;28;98231;-73
2022/02/26 03:47:50;;;;;;;40.25;5.20;;;;;;;9.10;56.51;102269.72;4981285;28;96766;-72
2022/02/26 03:50:17;;;;;;;32.95;4.78;;;;;;;8.16;59.62;102278.75;4979547;28;97123;-72
2022/02/26 03:52:44;;;;;;;35.70;5.25;;;;;;;8.54;58.78;102267.28;4980115;28;99029;-72
2022/02/26 03:55:11;;;;;;;28.80;4.93;;;;;;;8.32;58.47;102272.63;4970828;28;97584;-72
2022/02/26 03:57:38;;;;;;;35.35;4.10;;;;;;;8.54;58.32;102283.97;4973668;28;97786;-72
2022/02/26 04:00:06;;;;;;;45.75;7.35;;;;;;;8.28;59.16;102276.09;4982938;28;97320;-71
2022/02/26 04:02:34;;;;;;;46.28;5.57;;;;;;;8.34;59.00;102276.13;4978349;28;99733;-72
2022/02/26 04:05:01;;;;;;;43.53;5.40;;;;;;;7.99;60.12;102284.06;4974386;28;98964;-71
2022/02/26 04:07:28;;;;;;;43.03;4.80;;;;;;;8.05;59.95;102290.19;4982942;28;97545;-73
2022/02/26 04:09:54;;;;;;;47.58;5.00;;;;;;;8.47;58.85;102294.56;4976039;28;96935;-72
2022/02/26 04:12:21;;;;;;;41.35;5.68;;;;;;;8.37;59.09;102313.00;4978099;28;99097;-73
2022/02/26 04:14:47;;;;;;;48.05;5.20;;;;;;;8.15;58.88;102313.88;4975994;28;98036;-73
2022/02/26 04:17:13;;;;;;;40.80;4.85;;;;;;;8.92;57.18;102317.25;4975293;28;96863;-72
2022/02/26 04:19:40;;;;;;;38.70;5.43;;;;;;;8.81;57.67;102327.81;4974042;28;97286;-72
2022/02/26 04:22:08;;;;;;;31.67;4.18;;;;;;;8.85;57.14;102326.06;4974048;28;102701;-74
2022/02/26 04:24:34;;;;;;;37.80;5.00;;;;;;;8.07;59.19;102331.44;4977696;28;100908;-72
2022/02/26 04:27:01;;;;;;;44.75;4.40;;;;;;;8.75;57.54;102335.75;4984233;28;97565;-74
2022/02/26 04:29:27;;;;;;;42.05;5.43;;;;;;;8.71;57.40;102339.28;4975824;28;97084;-73
2022/02/26 04:31:54;;;;;;;30.90;4.10;;;;;;;8.95;56.69;102354.13;4979573;28;98973;-71
2022/02/26 04:34:20;;;;;;;37.92;4.53;;;;;;;8.96;56.71;102353.25;4975974;28;99421;-72
2022/02/26 04:36:50;;;;;;;31.55;4.47;;;;;;;8.82;57.26;102363.84;4978835;28;99460;-73
2022/02/26 04:39:18;;;;;;;35.83;4.15;;;;;;;8.23;59.15;102361.25;4970826;28;97681;-74
2022/02/26 04:41:45;;;;;;;34.55;4.15;;;;;;;8.39;58.43;102369.22;4975627;28;98940;-74
2022/02/26 04:44:11;;;;;;;27.73;4.28;;;;;;;8.61;57.57;102364.75;4976816;28;99371;-74
2022/02/26 04:46:38;;;;;;;36.65;4.45;;;;;;;8.60;58.15;102373.53;4972103;28;97905;-73
2022/02/26 04:49:04;;;;;;;40.08;4.82;;;;;;;8.70;57.41;102383.22;4978537;28;96910;-75
2022/02/26 04:51:31;;;;;;;32.08;3.58;;;;;;;8.54;57.89;102378.81;4981838;28;99652;-73
2022/02/26 04:53:58;;;;;;;30.98;4.32;;;;;;;8.67;57.38;102392.84;4973228;28;99362;-74
2022/02/26 04:56:25;;;;;;;37.30;5.25;;;;;;;8.62;57.44;102390.25;4981174;28;96797;-74
2022/02/26 04:58:52;;;;;;;38.75;4.82;;;;;;;8.68;57.14;102398.13;4979217;28;97336;-73
2022/02/26 05:01:18;;;;;;;33.28;4.50;;;;;;;8.39;57.67;102406.09;4980727;28;99149;-75
2022/02/26 05:03:45;;;;;;;42.63;4.20;;;;;;;8.58;57.40;102406.06;4979168;28;98902;-75
2022/02/26 05:06:14;;;;;;;31.50;4.35;;;;;;;8.87;56.32;102413.91;4977403;28;96912;-75
2022/02/26 05:08:40;;;;;;;31.10;4.18;;;;;;;8.94;55.93;102411.25;4976419;28;96803;-74
2022/02/26 05:11:07;;;;;;;35.00;6.45;;;;;;;8.96;55.79;102419.19;4979767;28;99296;-74
2022/02/26 05:13:34;;;;;;;36.67;3.92;;;;;;;9.04;55.70;102420.94;4975738;28;100627;-73
2022/02/26 05:16:01;;;;;;;37.45;5.15;;;;;;;9.01;55.36;102428.81;4972985;28;97034;-75
2022/02/26 05:18:27;;;;;;;41.63;4.60;;;;;;;9.07;55.76;102428.81;4983763;28;96888;-72
2022/02/26 05:20:55;;;;;;;40.75;4.80;;;;;;;9.34;54.93;102427.84;4986143;28;97637;-74
2022/02/26 05:23:21;;;;;;;30.23;5.57;;;;;;;9.42;54.37;102436.63;4979061;28;97689;-73
2022/02/26 05:25:48;;;;;;;34.72;4.40;;;;;;;9.36;54.62;102441.91;4982311;28;97657;-74
2022/02/26 05:28:14;;;;;;;33.60;5.53;;;;;;;9.46;54.40;102440.97;4978952;28;100599;-75
2022/02/26 05:30:42;;;;;;;40.20;5.03;;;;;;;9.27;54.41;102459.53;4982735;28;99364;-75
2022/02/26 05:33:08;;;;;;;32.10;4.93;;;;;;;9.38;54.49;102466.53;4976868;28;99560;-75
2022/02/26 05:35:35;;;;;;;31.00;4.60;;;;;;;9.57;53.80;102464.72;4972807;28;96887;-73
2022/02/26 05:38:02;;;;;;;28.13;4.30;;;;;;;9.40;54.26;102474.44;4979880;28;96746;-76
2022/02/26 05:40:28;;;;;;;27.55;3.85;;;;;;;9.54;54.00;102478.78;4976995;28;98264;-73
2022/02/26 05:42:55;;;;;;;28.77;3.55;;;;;;;9.53;53.94;102484.94;4977266;28;98823;-73
2022/02/26 05:45:22;;;;;;;37.75;4.68;;;;;;;9.48;54.16;102488.47;4977583;28;97850;-72
2022/02/26 05:47:49;;;;;;;29.50;3.90;;;;;;;9.63;53.73;102493.72;4980154;28;96849;-74
2022/02/26 05:50:16;;;;;;;30.30;4.57;;;;;;;9.87;53.26;102498.88;4980170;28;99422;-74
2022/02/26 05:52:43;;;;;;;36.83;4.28;;;;;;;9.11;54.58;102493.88;4974686;28;97739;-73
2022/02/26 05:55:12;;;;;;;28.98;3.78;;;;;;;8.90;55.42;102514.09;4982606;28;96827;-76
2022/02/26 05:57:39;;;;;;;36.05;4.43;;;;;;;9.36;54.68;102515.78;4977532;28;97600;-76
2022/02/26 06:00:06;;;;;;;44.85;4.63;;;;;;;9.56;53.83;102516.63;4978712;28;99453;-73
2022/02/26 06:02:33;;;;;;;40.50;4.97;;;;;;;8.89;55.62;102514.97;4974232;28;98941;-74
2022/02/26 06:05:01;;;;;;;39.67;4.68;;;;;;;9.45;54.10;102525.44;4979421;28;98736;-74
2022/02/26 06:07:27;;;;;;;32.92;3.95;;;;;;;9.01;55.29;102528.16;4980175;28;96946;-74
2022/02/26 06:09:54;;;;;;;31.35;3.83;;;;;;;9.51;54.01;102528.06;4986381;28;99327;-72
2022/02/26 06:12:20;;;;;;;28.33;4.53;;;;;;;9.27;54.54;102529.00;4980855;28;99579;-73
2022/02/26 06:14:47;;;;;;;36.60;4.78;;;;;;;9.26;54.67;102537.78;4973648;28;97684;-74
2022/02/26 06:17:13;;;;;;;37.95;4.00;;;;;;;8.80;55.28;102537.81;4969834;28;96896;-72
2022/02/26 06:19:40;;;;;;;47.38;5.82;;;;;;;9.07;55.04;102550.13;4972271;28;98300;-72
2022/02/26 06:22:08;;;;;;;28.67;4.43;;;;;;;9.24;54.95;102550.13;4972517;28;99351;-72
2022/02/26 06:24:34;;;;;;;44.25;5.55;;;;;;;9.24;54.81;102559.78;4975170;28;97540;-73
2022/02/26 06:27:00;;;;;;;38.38;5.68;;;;;;;9.30;54.67;102563.28;4974680;28;98303;-73
2022/02/26 06:29:27;;;;;;;39.28;4.18;;;;;;;9.00;55.65;102564.19;4977897;28;99408;-73
2022/02/26 06:31:53;;;;;;;42.55;5.85;;;;;;;8.88;55.74;102569.47;4973238;28;99456;-72
2022/02/26 06:34:21;;;;;;;32.03;4.00;;;;;;;9.29;54.74;102572.06;4975659;28;97635;-72
2022/02/26 06:36:47;;;;;;;32.97;4.30;;;;;;;8.99;55.35;102565.06;4974207;28;96840;-73
2022/02/26 06:39:15;;;;;;;37.92;4.63;;;;;;;9.14;55.13;102572.97;4975591;28;99811;-73
2022/02/26 06:41:42;;;;;;;34.75;4.90;;;;;;;9.53;54.03;102574.66;4972158;28;99359;-73
2022/02/26 06:44:08;;;;;;;31.83;4.97;;;;;;;9.76;53.51;102581.66;4972079;28;99089;-73
2022/02/26 06:46:37;;;;;;;44.13;5.07;;;;;;;9.67;54.12;102584.31;4977005;28;97379;-73
2022/02/26 06:49:04;;;;;;;34.17;4.28;;;;;;;9.05;54.93;102594.09;4979314;28;99211;-74
2022/02/26 06:51:31;;;;;;;21.08;3.72;;;;;;;9.29;54.45;102602.84;4975634;28;99095;-74
2022/02/26 06:53:58;;;;;;;33.58;4.72;;;;;;;9.75;53.21;102604.53;4979679;28;96882;-74
2022/02/26 06:56:25;;;;;;;29.38;4.43;;;;;;;9.84;52.84;102606.28;4981668;28;96794;-73
2022/02/26 06:58:53;;;;;;;29.48;3.92;;;;;;;9.85;52.55;102614.19;4973865;28;98009;-73
2022/02/26 07:01:20;;;;;;;25.08;3.65;;;;;;;9.55;53.30;102622.19;4981531;28;98626;-73
2022/02/26 07:03:46;;;;;;;31.65;3.78;;;;;;;9.00;54.81;102631.84;4972679;28;97221;-73
2022/02/26 07:06:13;;;;;;;32.17;3.72;;;;;;;8.92;54.98;102626.59;4981254;28;96837;-73
2022/02/26 07:08:39;;;;;;;33.58;4.18;;;;;;;9.30;53.88;102631.00;4970961;28;99243;-73
2022/02/26 07:11:06;;;;;;;31.42;4.47;;;;;;;8.84;55.48;102633.63;4976040;28;99352;-73
2022/02/26 07:13:33;;;;;;;30.17;3.95;;;;;;;9.46;53.27;102644.16;4976641;28;96798;-71
2022/02/26 07:16:08;;;;;;;32.95;4.20;;;;;;;9.79;52.03;102643.22;4974077;28;97144;-72
2022/02/26 07:18:35;;;;;;;27.75;4.05;;;;;;;9.64;52.63;102652.97;4977187;28;98163;-72
2022/02/26 07:21:03;;;;;;;23.42;3.75;;;;;;;9.73;52.46;102659.09;4971966;28;98678;-71
2022/02/26 07:23:29;;;;;;;25.65;4.10;;;;;;;10.00;51.74;102655.50;4973587;28;96813;-73
2022/02/26 07:25:56;;;;;;;31.02;4.43;;;;;;;9.78;52.25;102661.75;4972157;28;96895;-72
2022/02/26 07:28:22;;;;;;;26.15;3.60;;;;;;;9.98;51.36;102673.13;4972780;28;99030;-72
2022/02/26 07:30:52;;;;;;;25.02;4.13;;;;;;;10.19;51.10;102670.44;4977090;28;99187;-74
2022/02/26 07:33:19;;;;;;;28.55;4.18;;;;;;;10.31;50.56;102672.16;4969045;28;98025;-72
2022/02/26 07:35:45;;;;;;;29.67;4.30;;;;;;;10.33;50.37;102689.78;4974203;28;98754;-71
2022/02/26 07:38:12;;;;;;;22.50;4.03;;;;;;;9.94;51.18;102690.75;4980695;28;98995;-72
2022/02/26 07:40:41;;;;;;;23.05;4.32;;;;;;;9.91;51.39;102689.88;4977011;28;98854;-74
2022/02/26 07:43:10;;;;;;;26.25;4.00;;;;;;;9.68;51.71;102691.66;4974614;28;98460;-72
2022/02/26 07:45:37;;;;;;;22.45;3.35;;;;;;;9.78;51.86;102701.34;4975338;28;97674;-72
2022/02/26 07:48:06;;;;;;;22.15;4.05;;;;;;;10.28;50.67;102695.97;4978320;28;98823;-72
2022/02/26 07:50:32;;;;;;;31.70;3.90;;;;;;;10.08;50.79;102710.97;4978333;28;99142;-74
2022/02/26 07:52:59;;;;;;;27.73;3.47;;;;;;;10.38;49.96;102713.53;4977771;28;97574;-73
2022/02/26 07:55:25;;;;;;;24.83;4.32;;;;;;;10.57;49.93;102704.66;4976686;28;97254;-73
2022/02/26 07:57:51;;;;;;;23.27;4.00;;;;;;;9.88;51.09;102706.59;4973578;28;99894;-72
2022/02/26 08:00:18;;;;;;;28.85;4.38;;;;;;;10.29;50.19;102716.22;4977548;28;98604;-73
2022/02/26 08:02:45;;;;;;;26.05;3.58;;;;;;;10.28;50.50;102718.00;4979353;28;97678;-73
2022/02/26 08:05:12;;;;;;;21.58;3.97;;;;;;;10.39;50.10;102717.94;4978124;28;98513;-73
2022/02/26 08:07:39;;;;;;;23.13;3.53;;;;;;;10.03;50.77;102725.94;4975502;28;100584;-74
2022/02/26 08:10:06;;;;;;;28.95;3.78;;;;;;;9.91;51.55;102730.34;4977679;28;99329;-73
2022/02/26 08:12:32;;;;;;;26.92;4.00;;;;;;;10.38;50.18;102734.69;4978667;28;96932;-73
2022/02/26 08:14:59;;;;;;;29.40;3.85;;;;;;;10.67;49.50;102737.22;4981323;28;97112;-69
2022/02/26 08:17:25;;;;;;;32.65;4.78;;;;;;;10.41;49.49;102733.81;4967442;22;99435;-76
2022/02/26 08:19:52;;;;;;;24.48;4.10;;;;;;;10.16;50.78;102749.69;4949367;28;98980;-78
2022/02/26 08:22:19;;;;;;;26.65;4.03;;;;;;;9.50;52.03;102750.63;4957237;28;97772;-74
2022/02/26 08:24:46;;;;;;;29.88;4.40;;;;;;;9.64;51.95;102758.53;4948212;28;97133;-74
2022/02/26 08:27:13;;;;;;;30.73;4.45;;;;;;;9.96;50.67;102768.22;4948116;28;99083;-75
2022/02/26 08:29:40;;;;;;;33.03;4.32;;;;;;;10.32;49.79;102767.28;4940876;28;98807;-74
2022/02/26 08:32:07;;;;;;;24.20;3.38;;;;;;;10.07;50.83;102767.31;4956143;28;96810;-74
2022/02/26 08:34:33;;;;;;;22.92;2.95;;;;;;;10.44;49.33;102768.13;4970369;28;96995;-74
2022/02/26 08:37:00;;;;;;;19.40;2.67;;;;;;;10.35;49.22;102774.34;4972926;28;97928;-76
2022/02/26 08:39:29;;;;;;;25.38;3.78;;;;;;;10.03;50.42;102777.00;4947972;28;98126;-77
2022/02/26 08:41:56;;;;;;;28.13;4.78;;;;;;;10.50;49.39;102781.38;4949129;28;96951;-76
2022/02/26 08:44:22;;;;;;;22.77;3.83;;;;;;;10.46;49.30;102791.03;4943891;28;98281;-76
2022/02/26 08:46:48;;;;;;;27.70;4.35;;;;;;;9.85;50.56;102796.38;4944283;28;99474;-76
2022/02/26 08:49:15;;;;;;;22.67;3.40;;;;;;;9.90;50.56;102797.28;4944529;28;98451;-76
2022/02/26 08:51:41;;;;;;;24.13;4.68;;;;;;;9.88;50.80;102812.22;4946093;28;97999;-75
2022/02/26 08:54:08;;;;;;;20.33;4.18;;;;;;;9.80;51.09;102813.09;4946756;28;98495;-75
2022/02/26 08:56:35;;;;;;;19.98;3.25;;;;;;;9.77;51.28;102816.63;4946908;28;98923;-76
2022/02/26 08:59:02;;;;;;;24.20;3.35;;;;;;;9.51;51.60;102819.25;4949166;28;101052;-75
2022/02/26 09:01:28;;;;;;;24.20;3.25;;;;;;;10.06;50.00;102831.59;4940595;28;97922;-74
2022/02/26 09:03:55;;;;;;;21.45;3.65;;;;;;;9.69;51.08;102831.59;4947962;28;98250;-74
2022/02/26 09:06:22;;;;;;;23.05;3.28;;;;;;;10.05;50.35;102835.97;4943932;28;99559;-76
2022/02/26 09:08:48;;;;;;;18.92;3.72;;;;;;;10.32;50.02;102835.13;4945304;28;98963;-76
2022/02/26 09:11:15;;;;;;;18.10;3.05;;;;;;;10.53;49.06;102840.38;4946562;28;97671;-75
2022/02/26 09:13:46;;;;;;;25.67;2.75;;;;;;;10.32;49.81;102837.75;4946229;28;96835;-77
2022/02/26 09:16:15;;;;;;;23.70;3.80;;;;;;;10.28;49.70;102838.66;4944582;28;99566;-74
2022/02/26 09:18:42;;;;;;;27.45;3.33;;;;;;;10.49;49.29;102845.69;4951101;28;99453;-75
2022/02/26 09:21:09;;;;;;;21.10;4.07;;;;;;;10.85;48.55;102847.31;4945786;28;96876;-77
2022/02/26 09:23:36;;;;;;;25.02;3.42;;;;;;;10.87;47.99;102850.84;4951515;28;96839;-77
2022/02/26 09:26:04;;;;;;;26.80;3.85;;;;;;;10.76;48.39;102851.75;4955510;28;98529;-77
2022/02/26 09:28:31;;;;;;;25.60;4.20;;;;;;;10.81;48.67;102853.53;4965270;28;97634;-77
2022/02/26 09:30:59;;;;;;;19.70;3.65;;;;;;;10.11;50.35;102850.97;4959517;28;97510;-75
2022/02/26 09:33:26;;;;;;;16.92;3.65;;;;;;;10.03;50.41;102847.44;4962678;28;96741;-74
2022/02/26 09:35:52;;;;;;;25.13;4.07;;;;;;;10.44;49.13;102852.72;4955519;28;99432;-79
2022/02/26 09:38:19;;;;;;;26.48;3.30;;;;;;;10.56;49.38;102865.94;4954748;28;97890;-77
2022/02/26 09:40:45;;;;;;;22.50;3.60;;;;;;;10.62;48.90;102864.16;4951105;28;98106;-76
2022/02/26 09:43:11;;;;;;;23.30;3.40;;;;;;;10.76;48.73;102869.41;4948238;28;96949;-79
2022/02/26 09:45:38;;;;;;;22.98;4.68;;;;;;;10.31;49.81;102878.28;4947574;28;99524;-75
2022/02/26 09:48:06;;;;;;;21.75;3.72;;;;;;;10.37;50.12;102881.78;4949389;28;98998;-76
2022/02/26 09:50:32;;;;;;;22.67;3.40;;;;;;;10.28;50.27;102886.22;4951271;28;96845;-75
2022/02/26 09:52:59;;;;;;;17.17;3.25;;;;;;;9.87;51.23;102910.81;4951102;28;96939;-74
2022/02/26 09:55:25;;;;;;;16.00;2.63;;;;;;;9.20;52.76;102902.69;4955392;28;99326;-76
2022/02/26 09:57:51;;;;;;;24.15;3.13;;;;;;;9.11;53.14;102907.94;4953362;28;99165;-75
2022/02/26 10:00:18;;;;;;;12.38;2.90;;;;;;;8.93;53.08;102909.56;4951779;28;98434;-75
2022/02/26 10:02:49;;;;;;;17.23;2.83;;;;;;;9.66;51.22;102905.47;4948870;28;97181;-76
2022/02/26 10:05:18;;;;;;;16.15;3.10;;;;;;;10.06;50.14;102910.81;4949755;28;98994;-75
2022/02/26 10:07:46;;;;;;;16.38;3.60;;;;;;;10.26;49.47;102909.09;4944194;28;98910;-77
2022/02/26 10:10:16;;;;;;;18.95;3.22;;;;;;;10.21;49.45;102903.84;4945778;28;96878;-76
2022/02/26 10:12:43;;;;;;;15.98;2.83;;;;;;;10.30;49.80;102910.88;4949586;28;97150;-76
2022/02/26 10:15:22;;;;;;;11.57;2.70;;;;;;;10.14;49.89;102911.72;4951279;28;99082;-77
2022/02/26 10:17:59;;;;;;;22.25;3.88;;;;;;;10.06;50.06;102908.19;4954758;28;98851;-75
2022/02/26 10:20:27;;;;;;;16.13;2.95;;;;;;;9.79;50.92;102917.81;4947016;28;97437;-77
2022/02/26 10:22:55;;;;;;;11.40;2.42;;;;;;;9.82;50.32;102919.59;4950735;28;97069;-77
2022/02/26 10:25:24;;;;;;;23.58;3.20;;;;;;;10.37;49.23;102928.50;4950074;28;98985;-75
2022/02/26 10:27:53;;;;;;;13.43;2.40;;;;;;;10.00;49.94;102931.06;4943205;28;99547;-76
2022/02/26 10:30:23;;;;;;;14.02;2.35;;;;;;;10.12;50.01;102929.31;4948901;28;96842;-76
2022/02/26 10:33:05;;;;;;;22.67;2.95;;;;;;;10.46;48.97;102935.53;4955074;28;96841;-76
2022/02/26 10:35:44;;;;;;;10.07;2.05;;;;;;;10.64;48.67;102928.47;4949854;28;97827;-76
2022/02/26 10:38:12;;;;;;;12.40;2.28;;;;;;;9.87;49.65;102947.78;4947250;28;99238;-76
2022/02/26 10:40:47;;;;;;;17.48;2.53;;;;;;;10.20;50.26;102946.09;4949950;28;96838;-74
2022/02/26 10:43:13;;;;;;;22.42;3.60;;;;;;;10.28;49.75;102939.06;4952603;28;96890;-75
2022/02/26 10:45:39;;;;;;;12.85;2.47;;;;;;;10.34;49.67;102944.34;4949975;28;99195;-75
2022/02/26 10:48:06;;;;;;;12.05;1.85;;;;;;;9.78;50.84;102949.53;4952182;28;98738;-75
2022/02/26 10:50:34;;;;;;;16.13;2.90;;;;;;;9.96;50.62;102946.94;4943680;28;97403;-76
2022/02/26 10:53:03;;;;;;;15.35;2.47;;;;;;;9.95;50.59;102955.72;4946530;28;98227;-76
2022/02/26 10:55:50;;;;;;;12.73;1.98;;;;;;;10.53;49.12;102956.69;4949740;28;99164;-76
2022/02/26 10:58:18;;;;;;;;;;;;;;;11.40;46.79;102952.09;4947210;28;99207;-76
2022/02/26 11:00:44;;;;;;;;;;;;;;;10.74;47.86;102958.44;4948934;28;97324;-77
2022/02/26 11:03:11;;;;;;;9.02;2.10;;;;;;;10.78;47.90;102958.41;4951636;28;97301;-78
2022/02/26 11:05:38;;;;;;;11.43;2.03;;;;;;;9.98;49.24;102959.25;4951655;28;99177;-76
2022/02/26 11:08:06;;;;;;;7.38;1.85;;;;;;;10.07;48.96;102962.78;4952615;28;98981;-76
2022/02/26 11:10:33;;;;;;;5.50;1.48;;;;;;;10.17;48.52;102973.41;4950330;28;97315;-80
2022/02/26 11:13:00;;;;;;;13.20;2.33;;;;;;;10.74;47.45;102961.97;4947634;28;96926;-75
2022/02/26 11:15:27;;;;;;;10.38;3.13;;;;;;;10.49;47.89;102965.50;4950688;28;99048;-74
2022/02/26 11:17:55;;;;;;;18.83;2.33;;;;;;;10.42;48.22;102969.03;4949000;28;99429;-75
2022/02/26 11:20:26;;;;;;;17.60;2.72;;;;;;;10.44;47.99;102959.31;4952653;28;96787;-76
2022/02/26 11:22:54;;;;;;;16.52;2.47;;;;;;;10.94;46.52;102955.75;4948599;28;96936;-74
2022/02/26 11:25:23;;;;;;;19.42;2.00;;;;;;;11.34;45.94;102957.41;4953304;28;99033;-75
2022/02/26 11:27:49;;;;;;;15.43;2.05;;;;;;;11.21;46.32;102968.03;4945339;28;98996;-75